sensor_id;sensor_type;location;lat;lon;timestamp;P1;durP1;ratioP1;P2;durP2;ratioP2
75189;SDS011;69198;44.694;37.790;2023-04-24T00:00:20;7.82;;;2.35;;
75189;SDS011;69198;44.694;37.790;2023-04-24T00:01:21;6.82;;;2.28;;
75189;SDS011;69198;44.694;37.790;2023-04-24T00:02:22;8.80;;;2.23;;
75189;SDS011;69198;44.694;37.790;2023-04-24T00:03:23;7.38;;;2.22;;
75189;SDS011;69198;44.694;37.790;2023-04-24T00:04:24;6.97;;;1.60;;
75189;SDS011;69198;44.694;37.790;2023-04-24T00:05:26;6.70;;;2.00;;
75189;SDS011;69198;44.694;37.790;2023-04-24T00:06:27;8.35;;;2.38;;
75189;SDS011;69198;44.694;37.790;2023-04-24T00:07:34;6.97;;;2.22;;
75189;SDS011;69198;44.694;37.790;2023-04-24T00:08:36;7.15;;;2.00;;
75189;SDS011;69198;44.694;37.790;2023-04-24T00:09:37;6.30;;;2.10;;
75189;SDS011;69198;44.694;37.790;2023-04-24T00:10:38;5.90;;;1.77;;
75189;SDS011;69198;44.694;37.790;2023-04-24T00:11:39;7.47;;;2.30;;
75189;SDS011;69198;44.694;37.790;2023-04-24T00:12:40;6.60;;;2.10;;
75189;SDS011;69198;44.694;37.790;2023-04-24T00:13:41;7.03;;;1.77;;
75189;SDS011;69198;44.694;37.790;2023-04-24T00:14:42;6.70;;;1.67;;
75189;SDS011;69198;44.694;37.790;2023-04-24T00:15:43;5.90;;;1.73;;
75189;SDS011;69198;44.694;37.790;2023-04-24T00:16:44;6.70;;;1.73;;
75189;SDS011;69198;44.694;37.790;2023-04-24T00:17:45;7.32;;;2.20;;
75189;SDS011;69198;44.694;37.790;2023-04-24T00:18:46;6.45;;;2.10;;
75189;SDS011;69198;44.694;37.790;2023-04-24T00:19:48;6.38;;;2.25;;
75189;SDS011;69198;44.694;37.790;2023-04-24T00:20:51;8.33;;;2.43;;
75189;SDS011;69198;44.694;37.790;2023-04-24T00:21:52;8.00;;;2.30;;
75189;SDS011;69198;44.694;37.790;2023-04-24T00:22:54;8.07;;;2.20;;
75189;SDS011;69198;44.694;37.790;2023-04-24T00:23:55;9.38;;;2.00;;
75189;SDS011;69198;44.694;37.790;2023-04-24T00:24:56;7.07;;;2.55;;
75189;SDS011;69198;44.694;37.790;2023-04-24T00:25:57;6.35;;;1.85;;
75189;SDS011;69198;44.694;37.790;2023-04-24T00:26:58;6.28;;;1.73;;
75189;SDS011;69198;44.694;37.790;2023-04-24T00:28:01;8.38;;;2.53;;
75189;SDS011;69198;44.694;37.790;2023-04-24T00:29:02;6.55;;;2.08;;
75189;SDS011;69198;44.694;37.790;2023-04-24T00:30:03;6.60;;;1.80;;
75189;SDS011;69198;44.694;37.790;2023-04-24T00:31:05;7.55;;;2.13;;
75189;SDS011;69198;44.694;37.790;2023-04-24T00:32:06;8.27;;;1.98;;
75189;SDS011;69198;44.694;37.790;2023-04-24T00:33:07;6.97;;;2.22;;
75189;SDS011;69198;44.694;37.790;2023-04-24T00:34:08;7.28;;;2.22;;
75189;SDS011;69198;44.694;37.790;2023-04-24T00:35:12;7.43;;;1.70;;
75189;SDS011;69198;44.694;37.790;2023-04-24T00:36:13;8.63;;;1.90;;
75189;SDS011;69198;44.694;37.790;2023-04-24T00:37:14;6.33;;;1.90;;
75189;SDS011;69198;44.694;37.790;2023-04-24T00:38:18;5.40;;;1.60;;
75189;SDS011;69198;44.694;37.790;2023-04-24T00:39:19;6.40;;;1.75;;
75189;SDS011;69198;44.694;37.790;2023-04-24T00:40:20;8.73;;;1.88;;
75189;SDS011;69198;44.694;37.790;2023-04-24T00:41:21;8.90;;;2.10;;
75189;SDS011;69198;44.694;37.790;2023-04-24T00:42:23;5.97;;;1.60;;
75189;SDS011;69198;44.694;37.790;2023-04-24T00:43:24;6.55;;;1.80;;
75189;SDS011;69198;44.694;37.790;2023-04-24T00:44:25;8.95;;;1.88;;
75189;SDS011;69198;44.694;37.790;2023-04-24T00:45:26;6.22;;;1.90;;
75189;SDS011;69198;44.694;37.790;2023-04-24T00:46:27;6.63;;;1.92;;
75189;SDS011;69198;44.694;37.790;2023-04-24T00:47:29;6.90;;;2.10;;
75189;SDS011;69198;44.694;37.790;2023-04-24T00:48:30;5.47;;;1.50;;
75189;SDS011;69198;44.694;37.790;2023-04-24T00:49:32;8.75;;;2.15;;
75189;SDS011;69198;44.694;37.790;2023-04-24T00:50:35;6.72;;;1.67;;
75189;SDS011;69198;44.694;37.790;2023-04-24T00:51:36;6.88;;;1.60;;
75189;SDS011;69198;44.694;37.790;2023-04-24T00:52:37;7.07;;;2.13;;
75189;SDS011;69198;44.694;37.790;2023-04-24T00:53:40;6.85;;;1.90;;
75189;SDS011;69198;44.694;37.790;2023-04-24T00:54:42;7.95;;;2.53;;
75189;SDS011;69198;44.694;37.790;2023-04-24T00:55:43;7.73;;;1.80;;
75189;SDS011;69198;44.694;37.790;2023-04-24T00:56:44;6.22;;;1.60;;
75189;SDS011;69198;44.694;37.790;2023-04-24T00:57:45;7.18;;;2.05;;
75189;SDS011;69198;44.694;37.790;2023-04-24T00:58:47;7.15;;;1.77;;
75189;SDS011;69198;44.694;37.790;2023-04-24T00:59:48;6.22;;;2.22;;
75189;SDS011;69198;44.694;37.790;2023-04-24T01:00:49;6.35;;;1.83;;
75189;SDS011;69198;44.694;37.790;2023-04-24T01:01:53;5.68;;;1.77;;
75189;SDS011;69198;44.694;37.790;2023-04-24T01:02:54;6.35;;;1.60;;
75189;SDS011;69198;44.694;37.790;2023-04-24T01:03:56;5.75;;;1.75;;
75189;SDS011;69198;44.694;37.790;2023-04-24T01:04:58;6.03;;;1.83;;
75189;SDS011;69198;44.694;37.790;2023-04-24T01:06:00;8.37;;;2.43;;
75189;SDS011;69198;44.694;37.790;2023-04-24T01:07:01;7.32;;;1.70;;
75189;SDS011;69198;44.694;37.790;2023-04-24T01:08:02;8.25;;;1.92;;
75189;SDS011;69198;44.694;37.790;2023-04-24T01:09:04;6.93;;;1.77;;
75189;SDS011;69198;44.694;37.790;2023-04-24T01:10:05;5.32;;;1.73;;
75189;SDS011;69198;44.694;37.790;2023-04-24T01:11:08;7.03;;;1.70;;
75189;SDS011;69198;44.694;37.790;2023-04-24T01:12:09;6.18;;;1.95;;
75189;SDS011;69198;44.694;37.790;2023-04-24T01:13:11;7.28;;;2.15;;
75189;SDS011;69198;44.694;37.790;2023-04-24T01:14:13;5.75;;;1.98;;
75189;SDS011;69198;44.694;37.790;2023-04-24T01:15:15;5.55;;;1.70;;
75189;SDS011;69198;44.694;37.790;2023-04-24T01:16:16;5.47;;;1.60;;
75189;SDS011;69198;44.694;37.790;2023-04-24T01:17:20;6.00;;;2.00;;
75189;SDS011;69198;44.694;37.790;2023-04-24T01:18:21;7.03;;;1.90;;
75189;SDS011;69198;44.694;37.790;2023-04-24T01:19:24;9.20;;;1.65;;
75189;SDS011;69198;44.694;37.790;2023-04-24T01:20:25;6.07;;;1.75;;
75189;SDS011;69198;44.694;37.790;2023-04-24T01:21:26;6.57;;;1.75;;
75189;SDS011;69198;44.694;37.790;2023-04-24T01:22:32;6.47;;;1.83;;
75189;SDS011;69198;44.694;37.790;2023-04-24T01:23:34;6.20;;;1.77;;
75189;SDS011;69198;44.694;37.790;2023-04-24T01:24:36;7.85;;;2.00;;
75189;SDS011;69198;44.694;37.790;2023-04-24T01:25:38;6.57;;;1.67;;
75189;SDS011;69198;44.694;37.790;2023-04-24T01:26:40;6.30;;;1.53;;
75189;SDS011;69198;44.694;37.790;2023-04-24T01:27:41;6.88;;;1.90;;
75189;SDS011;69198;44.694;37.790;2023-04-24T01:28:42;8.43;;;1.90;;
75189;SDS011;69198;44.694;37.790;2023-04-24T01:29:43;7.70;;;1.88;;
75189;SDS011;69198;44.694;37.790;2023-04-24T01:30:44;6.15;;;1.48;;
75189;SDS011;69198;44.694;37.790;2023-04-24T01:31:45;8.07;;;1.85;;
75189;SDS011;69198;44.694;37.790;2023-04-24T01:32:47;5.63;;;1.33;;
75189;SDS011;69198;44.694;37.790;2023-04-24T01:33:49;5.80;;;1.40;;
75189;SDS011;69198;44.694;37.790;2023-04-24T01:34:51;6.95;;;1.67;;
75189;SDS011;69198;44.694;37.790;2023-04-24T01:35:52;6.70;;;1.40;;
75189;SDS011;69198;44.694;37.790;2023-04-24T01:36:54;6.60;;;1.60;;
75189;SDS011;69198;44.694;37.790;2023-04-24T01:37:56;6.70;;;1.70;;
75189;SDS011;69198;44.694;37.790;2023-04-24T01:38:58;5.15;;;1.48;;
75189;SDS011;69198;44.694;37.790;2023-04-24T01:40:00;6.30;;;1.50;;
75189;SDS011;69198;44.694;37.790;2023-04-24T01:41:01;7.63;;;1.73;;
75189;SDS011;69198;44.694;37.790;2023-04-24T01:42:02;5.63;;;1.60;;
75189;SDS011;69198;44.694;37.790;2023-04-24T01:43:05;7.05;;;1.60;;
75189;SDS011;69198;44.694;37.790;2023-04-24T01:44:06;4.82;;;1.35;;
75189;SDS011;69198;44.694;37.790;2023-04-24T01:45:10;6.28;;;1.80;;
75189;SDS011;69198;44.694;37.790;2023-04-24T01:46:13;6.75;;;1.85;;
75189;SDS011;69198;44.694;37.790;2023-04-24T01:47:14;5.47;;;1.23;;
75189;SDS011;69198;44.694;37.790;2023-04-24T01:48:15;7.00;;;1.70;;
75189;SDS011;69198;44.694;37.790;2023-04-24T01:49:16;5.65;;;1.60;;
75189;SDS011;69198;44.694;37.790;2023-04-24T01:50:19;5.32;;;1.60;;
75189;SDS011;69198;44.694;37.790;2023-04-24T01:51:20;6.28;;;1.83;;
75189;SDS011;69198;44.694;37.790;2023-04-24T01:52:21;6.30;;;1.50;;
75189;SDS011;69198;44.694;37.790;2023-04-24T01:53:22;6.30;;;1.70;;
75189;SDS011;69198;44.694;37.790;2023-04-24T01:54:23;6.10;;;1.65;;
75189;SDS011;69198;44.694;37.790;2023-04-24T01:55:24;6.05;;;1.52;;
75189;SDS011;69198;44.694;37.790;2023-04-24T01:56:25;6.10;;;1.93;;
75189;SDS011;69198;44.694;37.790;2023-04-24T01:57:29;7.30;;;1.70;;
75189;SDS011;69198;44.694;37.790;2023-04-24T01:58:31;6.07;;;1.83;;
75189;SDS011;69198;44.694;37.790;2023-04-24T01:59:32;5.70;;;1.70;;
75189;SDS011;69198;44.694;37.790;2023-04-24T02:00:35;5.47;;;1.70;;
75189;SDS011;69198;44.694;37.790;2023-04-24T02:01:36;6.60;;;2.30;;
75189;SDS011;69198;44.694;37.790;2023-04-24T02:02:41;5.60;;;1.85;;
75189;SDS011;69198;44.694;37.790;2023-04-24T02:03:42;5.88;;;1.75;;
75189;SDS011;69198;44.694;37.790;2023-04-24T02:04:43;6.63;;;1.50;;
75189;SDS011;69198;44.694;37.790;2023-04-24T02:05:44;6.13;;;1.75;;
75189;SDS011;69198;44.694;37.790;2023-04-24T02:06:45;10.10;;;2.10;;
75189;SDS011;69198;44.694;37.790;2023-04-24T02:07:46;5.97;;;1.75;;
75189;SDS011;69198;44.694;37.790;2023-04-24T02:08:47;6.20;;;1.70;;
75189;SDS011;69198;44.694;37.790;2023-04-24T02:09:48;8.40;;;2.08;;
75189;SDS011;69198;44.694;37.790;2023-04-24T02:10:50;6.22;;;1.83;;
75189;SDS011;69198;44.694;37.790;2023-04-24T02:11:51;6.82;;;1.95;;
75189;SDS011;69198;44.694;37.790;2023-04-24T02:12:52;6.70;;;1.83;;
75189;SDS011;69198;44.694;37.790;2023-04-24T02:13:53;5.68;;;1.80;;
75189;SDS011;69198;44.694;37.790;2023-04-24T02:14:55;5.97;;;2.10;;
75189;SDS011;69198;44.694;37.790;2023-04-24T02:15:57;8.07;;;1.60;;
75189;SDS011;69198;44.694;37.790;2023-04-24T02:16:59;8.55;;;1.92;;
75189;SDS011;69198;44.694;37.790;2023-04-24T02:18:01;7.93;;;2.10;;
75189;SDS011;69198;44.694;37.790;2023-04-24T02:19:02;5.90;;;2.03;;
75189;SDS011;69198;44.694;37.790;2023-04-24T02:20:06;6.88;;;1.80;;
75189;SDS011;69198;44.694;37.790;2023-04-24T02:21:08;6.10;;;1.90;;
75189;SDS011;69198;44.694;37.790;2023-04-24T02:22:09;7.82;;;1.60;;
75189;SDS011;69198;44.694;37.790;2023-04-24T02:23:11;7.13;;;2.20;;
75189;SDS011;69198;44.694;37.790;2023-04-24T02:24:12;6.75;;;2.00;;
75189;SDS011;69198;44.694;37.790;2023-04-24T02:25:13;6.10;;;2.08;;
75189;SDS011;69198;44.694;37.790;2023-04-24T02:26:15;8.43;;;2.50;;
75189;SDS011;69198;44.694;37.790;2023-04-24T02:27:18;6.38;;;1.88;;
75189;SDS011;69198;44.694;37.790;2023-04-24T02:28:19;7.95;;;1.90;;
75189;SDS011;69198;44.694;37.790;2023-04-24T02:29:20;10.73;;;2.47;;
75189;SDS011;69198;44.694;37.790;2023-04-24T02:30:23;11.98;;;2.92;;
75189;SDS011;69198;44.694;37.790;2023-04-24T02:31:24;7.20;;;2.40;;
75189;SDS011;69198;44.694;37.790;2023-04-24T02:32:25;9.27;;;2.50;;
75189;SDS011;69198;44.694;37.790;2023-04-24T02:33:26;6.93;;;1.83;;
75189;SDS011;69198;44.694;37.790;2023-04-24T02:34:27;6.60;;;1.92;;
75189;SDS011;69198;44.694;37.790;2023-04-24T02:35:28;7.47;;;2.25;;
75189;SDS011;69198;44.694;37.790;2023-04-24T02:36:30;7.30;;;2.53;;
75189;SDS011;69198;44.694;37.790;2023-04-24T02:37:31;10.40;;;2.50;;
75189;SDS011;69198;44.694;37.790;2023-04-24T02:38:32;5.75;;;2.00;;
75189;SDS011;69198;44.694;37.790;2023-04-24T02:39:33;6.25;;;2.00;;
75189;SDS011;69198;44.694;37.790;2023-04-24T02:40:34;7.33;;;1.83;;
75189;SDS011;69198;44.694;37.790;2023-04-24T02:41:36;6.72;;;2.28;;
75189;SDS011;69198;44.694;37.790;2023-04-24T02:42:37;7.50;;;2.10;;
75189;SDS011;69198;44.694;37.790;2023-04-24T02:43:38;7.25;;;2.20;;
75189;SDS011;69198;44.694;37.790;2023-04-24T02:44:40;7.68;;;2.35;;
75189;SDS011;69198;44.694;37.790;2023-04-24T02:45:41;6.70;;;2.30;;
75189;SDS011;69198;44.694;37.790;2023-04-24T02:46:42;7.50;;;2.40;;
75189;SDS011;69198;44.694;37.790;2023-04-24T02:47:43;7.70;;;2.53;;
75189;SDS011;69198;44.694;37.790;2023-04-24T02:48:45;6.97;;;2.50;;
75189;SDS011;69198;44.694;37.790;2023-04-24T02:49:46;7.72;;;2.70;;
75189;SDS011;69198;44.694;37.790;2023-04-24T02:50:47;7.53;;;2.70;;
75189;SDS011;69198;44.694;37.790;2023-04-24T02:51:48;6.82;;;2.20;;
75189;SDS011;69198;44.694;37.790;2023-04-24T02:52:49;8.82;;;2.83;;
75189;SDS011;69198;44.694;37.790;2023-04-24T02:53:50;6.93;;;2.05;;
75189;SDS011;69198;44.694;37.790;2023-04-24T02:54:51;7.05;;;2.05;;
75189;SDS011;69198;44.694;37.790;2023-04-24T02:55:54;7.07;;;2.53;;
75189;SDS011;69198;44.694;37.790;2023-04-24T02:56:55;7.80;;;2.72;;
75189;SDS011;69198;44.694;37.790;2023-04-24T02:57:57;9.70;;;3.37;;
75189;SDS011;69198;44.694;37.790;2023-04-24T02:58:58;9.23;;;2.78;;
75189;SDS011;69198;44.694;37.790;2023-04-24T02:59:59;6.95;;;2.47;;
75189;SDS011;69198;44.694;37.790;2023-04-24T03:01:00;7.28;;;2.63;;
75189;SDS011;69198;44.694;37.790;2023-04-24T03:02:01;6.65;;;2.45;;
75189;SDS011;69198;44.694;37.790;2023-04-24T03:03:02;6.45;;;2.40;;
75189;SDS011;69198;44.694;37.790;2023-04-24T03:04:03;9.75;;;2.67;;
75189;SDS011;69198;44.694;37.790;2023-04-24T03:05:04;7.23;;;2.43;;
75189;SDS011;69198;44.694;37.790;2023-04-24T03:06:06;9.27;;;2.60;;
75189;SDS011;69198;44.694;37.790;2023-04-24T03:07:08;6.35;;;2.13;;
75189;SDS011;69198;44.694;37.790;2023-04-24T03:08:11;6.93;;;2.10;;
75189;SDS011;69198;44.694;37.790;2023-04-24T03:09:12;7.47;;;2.58;;
75189;SDS011;69198;44.694;37.790;2023-04-24T03:10:13;8.70;;;3.25;;
75189;SDS011;69198;44.694;37.790;2023-04-24T03:11:14;8.20;;;3.05;;
75189;SDS011;69198;44.694;37.790;2023-04-24T03:12:16;7.57;;;2.60;;
75189;SDS011;69198;44.694;37.790;2023-04-24T03:13:18;6.80;;;2.30;;
75189;SDS011;69198;44.694;37.790;2023-04-24T03:14:19;7.22;;;2.30;;
75189;SDS011;69198;44.694;37.790;2023-04-24T03:15:20;7.35;;;2.38;;
75189;SDS011;69198;44.694;37.790;2023-04-24T03:16:21;7.53;;;2.60;;
75189;SDS011;69198;44.694;37.790;2023-04-24T03:17:22;8.30;;;2.75;;
75189;SDS011;69198;44.694;37.790;2023-04-24T03:18:23;7.80;;;2.60;;
75189;SDS011;69198;44.694;37.790;2023-04-24T03:19:25;10.98;;;3.17;;
75189;SDS011;69198;44.694;37.790;2023-04-24T03:20:38;8.02;;;2.78;;
75189;SDS011;69198;44.694;37.790;2023-04-24T03:21:39;9.27;;;2.53;;
75189;SDS011;69198;44.694;37.790;2023-04-24T03:22:41;9.27;;;2.90;;
75189;SDS011;69198;44.694;37.790;2023-04-24T03:23:42;8.32;;;2.60;;
75189;SDS011;69198;44.694;37.790;2023-04-24T03:24:44;7.65;;;2.60;;
75189;SDS011;69198;44.694;37.790;2023-04-24T03:25:46;8.57;;;2.72;;
75189;SDS011;69198;44.694;37.790;2023-04-24T03:26:49;9.27;;;2.87;;
75189;SDS011;69198;44.694;37.790;2023-04-24T03:28:10;8.63;;;2.97;;
75189;SDS011;69198;44.694;37.790;2023-04-24T03:29:15;7.40;;;2.65;;
75189;SDS011;69198;44.694;37.790;2023-04-24T03:30:20;10.35;;;3.30;;
75189;SDS011;69198;44.694;37.790;2023-04-24T03:31:26;8.88;;;2.90;;
75189;SDS011;69198;44.694;37.790;2023-04-24T03:32:27;11.43;;;3.13;;
75189;SDS011;69198;44.694;37.790;2023-04-24T03:33:28;9.85;;;3.63;;
75189;SDS011;69198;44.694;37.790;2023-04-24T03:34:35;8.93;;;2.92;;
75189;SDS011;69198;44.694;37.790;2023-04-24T03:35:36;10.23;;;3.22;;
75189;SDS011;69198;44.694;37.790;2023-04-24T03:36:41;8.87;;;3.33;;
75189;SDS011;69198;44.694;37.790;2023-04-24T03:37:42;9.52;;;3.13;;
75189;SDS011;69198;44.694;37.790;2023-04-24T03:39:02;10.60;;;2.85;;
75189;SDS011;69198;44.694;37.790;2023-04-24T03:40:07;10.35;;;3.45;;
75189;SDS011;69198;44.694;37.790;2023-04-24T03:41:10;10.63;;;3.47;;
75189;SDS011;69198;44.694;37.790;2023-04-24T03:42:20;9.70;;;3.05;;
75189;SDS011;69198;44.694;37.790;2023-04-24T03:43:29;9.48;;;3.03;;
75189;SDS011;69198;44.694;37.790;2023-04-24T03:44:34;10.27;;;3.72;;
75189;SDS011;69198;44.694;37.790;2023-04-24T03:45:36;8.57;;;3.30;;
75189;SDS011;69198;44.694;37.790;2023-04-24T03:46:37;12.98;;;3.78;;
75189;SDS011;69198;44.694;37.790;2023-04-24T03:47:38;12.03;;;3.53;;
75189;SDS011;69198;44.694;37.790;2023-04-24T03:48:40;10.77;;;2.92;;
75189;SDS011;69198;44.694;37.790;2023-04-24T03:49:42;10.93;;;3.50;;
75189;SDS011;69198;44.694;37.790;2023-04-24T03:50:44;9.57;;;3.03;;
75189;SDS011;69198;44.694;37.790;2023-04-24T03:51:46;13.93;;;5.72;;
75189;SDS011;69198;44.694;37.790;2023-04-24T03:53:05;9.80;;;3.35;;
75189;SDS011;69198;44.694;37.790;2023-04-24T03:54:13;9.43;;;3.67;;
75189;SDS011;69198;44.694;37.790;2023-04-24T03:55:14;8.50;;;3.20;;
75189;SDS011;69198;44.694;37.790;2023-04-24T03:56:19;7.93;;;2.90;;
75189;SDS011;69198;44.694;37.790;2023-04-24T03:57:21;10.65;;;3.42;;
75189;SDS011;69198;44.694;37.790;2023-04-24T03:58:35;8.80;;;3.17;;
75189;SDS011;69198;44.694;37.790;2023-04-24T03:59:36;9.48;;;3.28;;
75189;SDS011;69198;44.694;37.790;2023-04-24T04:00:51;11.93;;;3.72;;
75189;SDS011;69198;44.694;37.790;2023-04-24T04:02:14;10.43;;;3.97;;
75189;SDS011;69198;44.694;37.790;2023-04-24T04:03:15;9.93;;;3.20;;
75189;SDS011;69198;44.694;37.790;2023-04-24T04:04:17;10.25;;;3.55;;
75189;SDS011;69198;44.694;37.790;2023-04-24T04:05:19;9.73;;;3.58;;
75189;SDS011;69198;44.694;37.790;2023-04-24T04:06:20;8.93;;;3.28;;
75189;SDS011;69198;44.694;37.790;2023-04-24T04:07:22;9.95;;;3.15;;
75189;SDS011;69198;44.694;37.790;2023-04-24T04:08:24;10.97;;;3.77;;
75189;SDS011;69198;44.694;37.790;2023-04-24T04:09:25;11.45;;;3.67;;
75189;SDS011;69198;44.694;37.790;2023-04-24T04:10:26;10.73;;;4.03;;
75189;SDS011;69198;44.694;37.790;2023-04-24T04:11:27;11.18;;;3.80;;
75189;SDS011;69198;44.694;37.790;2023-04-24T04:12:28;11.18;;;4.03;;
75189;SDS011;69198;44.694;37.790;2023-04-24T04:13:29;10.10;;;3.60;;
75189;SDS011;69198;44.694;37.790;2023-04-24T04:14:30;11.68;;;4.40;;
75189;SDS011;69198;44.694;37.790;2023-04-24T04:15:31;8.30;;;3.50;;
75189;SDS011;69198;44.694;37.790;2023-04-24T04:16:32;8.30;;;3.28;;
75189;SDS011;69198;44.694;37.790;2023-04-24T04:17:37;11.33;;;3.83;;
75189;SDS011;69198;44.694;37.790;2023-04-24T04:18:40;11.57;;;3.60;;
75189;SDS011;69198;44.694;37.790;2023-04-24T04:19:41;9.60;;;3.35;;
75189;SDS011;69198;44.694;37.790;2023-04-24T04:20:43;9.95;;;3.60;;
75189;SDS011;69198;44.694;37.790;2023-04-24T04:21:46;10.25;;;3.83;;
75189;SDS011;69198;44.694;37.790;2023-04-24T04:23:05;11.82;;;4.00;;
75189;SDS011;69198;44.694;37.790;2023-04-24T04:24:19;9.98;;;3.65;;
75189;SDS011;69198;44.694;37.790;2023-04-24T04:25:25;9.85;;;3.53;;
75189;SDS011;69198;44.694;37.790;2023-04-24T04:26:27;9.60;;;3.38;;
75189;SDS011;69198;44.694;37.790;2023-04-24T04:27:36;8.90;;;2.95;;
75189;SDS011;69198;44.694;37.790;2023-04-24T04:28:43;9.13;;;3.73;;
75189;SDS011;69198;44.694;37.790;2023-04-24T04:29:45;9.65;;;3.85;;
75189;SDS011;69198;44.694;37.790;2023-04-24T04:30:48;11.60;;;3.85;;
75189;SDS011;69198;44.694;37.790;2023-04-24T04:31:50;11.13;;;3.80;;
75189;SDS011;69198;44.694;37.790;2023-04-24T04:32:51;10.50;;;3.50;;
75189;SDS011;69198;44.694;37.790;2023-04-24T04:33:52;9.13;;;3.33;;
75189;SDS011;69198;44.694;37.790;2023-04-24T04:34:53;12.45;;;3.78;;
75189;SDS011;69198;44.694;37.790;2023-04-24T04:35:56;11.43;;;3.97;;
75189;SDS011;69198;44.694;37.790;2023-04-24T04:36:59;11.45;;;3.70;;
75189;SDS011;69198;44.694;37.790;2023-04-24T04:38:30;9.63;;;3.08;;
75189;SDS011;69198;44.694;37.790;2023-04-24T04:39:38;8.27;;;2.67;;
75189;SDS011;69198;44.694;37.790;2023-04-24T04:40:44;10.68;;;3.15;;
75189;SDS011;69198;44.694;37.790;2023-04-24T04:41:46;10.30;;;3.47;;
75189;SDS011;69198;44.694;37.790;2023-04-24T04:42:50;11.95;;;3.33;;
75189;SDS011;69198;44.694;37.790;2023-04-24T04:43:54;9.02;;;3.50;;
75189;SDS011;69198;44.694;37.790;2023-04-24T04:44:55;10.55;;;3.75;;
75189;SDS011;69198;44.694;37.790;2023-04-24T04:46:04;9.95;;;3.00;;
75189;SDS011;69198;44.694;37.790;2023-04-24T04:47:44;10.52;;;3.55;;
75189;SDS011;69198;44.694;37.790;2023-04-24T04:48:45;9.05;;;3.33;;
75189;SDS011;69198;44.694;37.790;2023-04-24T04:49:47;8.65;;;2.92;;
75189;SDS011;69198;44.694;37.790;2023-04-24T04:50:54;8.83;;;3.20;;
75189;SDS011;69198;44.694;37.790;2023-04-24T04:51:57;10.30;;;3.10;;
75189;SDS011;69198;44.694;37.790;2023-04-24T04:53:00;8.57;;;3.00;;
75189;SDS011;69198;44.694;37.790;2023-04-24T04:54:06;9.30;;;3.20;;
75189;SDS011;69198;44.694;37.790;2023-04-24T04:55:08;7.88;;;3.13;;
75189;SDS011;69198;44.694;37.790;2023-04-24T04:56:33;8.48;;;3.00;;
75189;SDS011;69198;44.694;37.790;2023-04-24T04:57:35;10.90;;;3.63;;
75189;SDS011;69198;44.694;37.790;2023-04-24T04:58:38;9.57;;;3.33;;
75189;SDS011;69198;44.694;37.790;2023-04-24T04:59:42;8.70;;;3.30;;
75189;SDS011;69198;44.694;37.790;2023-04-24T05:00:49;13.10;;;3.42;;
75189;SDS011;69198;44.694;37.790;2023-04-24T05:02:00;9.73;;;2.97;;
75189;SDS011;69198;44.694;37.790;2023-04-24T05:03:01;10.05;;;3.03;;
75189;SDS011;69198;44.694;37.790;2023-04-24T05:04:03;8.63;;;3.00;;
75189;SDS011;69198;44.694;37.790;2023-04-24T05:05:05;8.98;;;2.85;;
75189;SDS011;69198;44.694;37.790;2023-04-24T05:06:06;10.10;;;3.55;;
75189;SDS011;69198;44.694;37.790;2023-04-24T05:07:11;10.32;;;3.33;;
75189;SDS011;69198;44.694;37.790;2023-04-24T05:08:15;7.50;;;3.00;;
75189;SDS011;69198;44.694;37.790;2023-04-24T05:09:16;11.60;;;3.38;;
75189;SDS011;69198;44.694;37.790;2023-04-24T05:10:29;9.32;;;3.10;;
75189;SDS011;69198;44.694;37.790;2023-04-24T05:11:31;10.88;;;3.67;;
75189;SDS011;69198;44.694;37.790;2023-04-24T05:12:34;10.10;;;3.70;;
75189;SDS011;69198;44.694;37.790;2023-04-24T05:13:37;8.57;;;3.00;;
75189;SDS011;69198;44.694;37.790;2023-04-24T05:14:41;9.77;;;3.35;;
75189;SDS011;69198;44.694;37.790;2023-04-24T05:15:43;8.75;;;3.00;;
75189;SDS011;69198;44.694;37.790;2023-04-24T05:16:43;9.50;;;3.20;;
75189;SDS011;69198;44.694;37.790;2023-04-24T05:17:46;9.93;;;3.42;;
75189;SDS011;69198;44.694;37.790;2023-04-24T05:18:48;10.73;;;3.25;;
75189;SDS011;69198;44.694;37.790;2023-04-24T05:19:52;9.27;;;2.90;;
75189;SDS011;69198;44.694;37.790;2023-04-24T05:20:53;8.83;;;3.20;;
75189;SDS011;69198;44.694;37.790;2023-04-24T05:21:55;9.10;;;3.03;;
75189;SDS011;69198;44.694;37.790;2023-04-24T05:22:56;8.48;;;3.22;;
75189;SDS011;69198;44.694;37.790;2023-04-24T05:23:59;9.45;;;3.65;;
75189;SDS011;69198;44.694;37.790;2023-04-24T05:25:18;8.60;;;3.13;;
75189;SDS011;69198;44.694;37.790;2023-04-24T05:26:33;9.30;;;3.10;;
75189;SDS011;69198;44.694;37.790;2023-04-24T05:27:34;8.77;;;3.00;;
75189;SDS011;69198;44.694;37.790;2023-04-24T05:28:39;9.30;;;3.40;;
75189;SDS011;69198;44.694;37.790;2023-04-24T05:29:45;8.57;;;3.28;;
75189;SDS011;69198;44.694;37.790;2023-04-24T05:30:47;9.07;;;3.22;;
75189;SDS011;69198;44.694;37.790;2023-04-24T05:31:49;9.95;;;3.20;;
75189;SDS011;69198;44.694;37.790;2023-04-24T05:32:50;7.50;;;2.80;;
75189;SDS011;69198;44.694;37.790;2023-04-24T05:33:51;10.82;;;3.30;;
75189;SDS011;69198;44.694;37.790;2023-04-24T05:34:52;7.95;;;2.90;;
75189;SDS011;69198;44.694;37.790;2023-04-24T05:35:54;8.95;;;3.13;;
75189;SDS011;69198;44.694;37.790;2023-04-24T05:36:55;8.93;;;3.30;;
75189;SDS011;69198;44.694;37.790;2023-04-24T05:37:56;9.77;;;3.30;;
75189;SDS011;69198;44.694;37.790;2023-04-24T05:38:57;10.00;;;3.50;;
75189;SDS011;69198;44.694;37.790;2023-04-24T05:39:59;9.48;;;2.92;;
75189;SDS011;69198;44.694;37.790;2023-04-24T05:41:00;8.83;;;3.30;;
75189;SDS011;69198;44.694;37.790;2023-04-24T05:42:02;9.02;;;3.10;;
75189;SDS011;69198;44.694;37.790;2023-04-24T05:43:04;9.20;;;3.58;;
75189;SDS011;69198;44.694;37.790;2023-04-24T05:44:05;8.98;;;3.30;;
75189;SDS011;69198;44.694;37.790;2023-04-24T05:45:07;8.65;;;3.35;;
75189;SDS011;69198;44.694;37.790;2023-04-24T05:46:11;8.32;;;3.10;;
75189;SDS011;69198;44.694;37.790;2023-04-24T05:47:13;8.00;;;2.70;;
75189;SDS011;69198;44.694;37.790;2023-04-24T05:48:14;9.32;;;3.30;;
75189;SDS011;69198;44.694;37.790;2023-04-24T05:49:16;9.38;;;3.08;;
75189;SDS011;69198;44.694;37.790;2023-04-24T05:50:17;7.45;;;2.88;;
75189;SDS011;69198;44.694;37.790;2023-04-24T05:51:18;8.93;;;3.27;;
75189;SDS011;69198;44.694;37.790;2023-04-24T05:52:19;8.52;;;3.00;;
75189;SDS011;69198;44.694;37.790;2023-04-24T05:53:22;8.65;;;2.97;;
75189;SDS011;69198;44.694;37.790;2023-04-24T05:54:23;10.98;;;3.53;;
75189;SDS011;69198;44.694;37.790;2023-04-24T05:55:24;9.35;;;3.15;;
75189;SDS011;69198;44.694;37.790;2023-04-24T05:56:27;8.10;;;3.30;;
75189;SDS011;69198;44.694;37.790;2023-04-24T05:57:28;9.77;;;3.72;;
75189;SDS011;69198;44.694;37.790;2023-04-24T05:58:36;10.00;;;3.88;;
75189;SDS011;69198;44.694;37.790;2023-04-24T05:59:38;10.32;;;3.55;;
75189;SDS011;69198;44.694;37.790;2023-04-24T06:00:41;9.55;;;3.20;;
75189;SDS011;69198;44.694;37.790;2023-04-24T06:01:44;8.90;;;3.33;;
75189;SDS011;69198;44.694;37.790;2023-04-24T06:02:50;11.73;;;3.58;;
75189;SDS011;69198;44.694;37.790;2023-04-24T06:03:51;11.70;;;3.67;;
75189;SDS011;69198;44.694;37.790;2023-04-24T06:04:53;8.35;;;3.42;;
75189;SDS011;69198;44.694;37.790;2023-04-24T06:05:55;9.30;;;3.83;;
75189;SDS011;69198;44.694;37.790;2023-04-24T06:06:57;10.75;;;3.38;;
75189;SDS011;69198;44.694;37.790;2023-04-24T06:07:58;9.85;;;3.65;;
75189;SDS011;69198;44.694;37.790;2023-04-24T06:09:04;11.60;;;3.83;;
75189;SDS011;69198;44.694;37.790;2023-04-24T06:10:05;8.63;;;3.50;;
75189;SDS011;69198;44.694;37.790;2023-04-24T06:11:13;9.40;;;3.88;;
75189;SDS011;69198;44.694;37.790;2023-04-24T06:12:14;9.63;;;3.67;;